sensor_id;sensor_type;location;lat;lon;timestamp;P1;durP1;ratioP1;P2;durP2;ratioP2
16900;SDS011;8567;52.540;6.434;2023-02-22T00:01:15;21.58;;;19.98;;
16900;SDS011;8567;52.540;6.434;2023-02-22T00:03:53;22.05;;;20.65;;
16900;SDS011;8567;52.540;6.434;2023-02-22T00:06:20;21.73;;;20.23;;
16900;SDS011;8567;52.540;6.434;2023-02-22T00:08:50;24.05;;;22.17;;
16900;SDS011;8567;52.540;6.434;2023-02-22T00:11:17;21.73;;;20.27;;
16900;SDS011;8567;52.540;6.434;2023-02-22T00:13:44;20.75;;;19.45;;
16900;SDS011;8567;52.540;6.434;2023-02-22T00:16:14;21.00;;;19.65;;
16900;SDS011;8567;52.540;6.434;2023-02-22T00:18:43;20.08;;;18.65;;
16900;SDS011;8567;52.540;6.434;2023-02-22T00:21:11;21.13;;;19.63;;
16900;SDS011;8567;52.540;6.434;2023-02-22T00:23:41;22.60;;;20.63;;
16900;SDS011;8567;52.540;6.434;2023-02-22T00:26:10;20.05;;;18.65;;
16900;SDS011;8567;52.540;6.434;2023-02-22T00:28:38;20.67;;;19.30;;
16900;SDS011;8567;52.540;6.434;2023-02-22T00:31:06;19.88;;;18.58;;
16900;SDS011;8567;52.540;6.434;2023-02-22T00:33:33;20.33;;;18.95;;
16900;SDS011;8567;52.540;6.434;2023-02-22T00:36:00;19.58;;;18.17;;
16900;SDS011;8567;52.540;6.434;2023-02-22T00:38:29;20.30;;;19.00;;
16900;SDS011;8567;52.540;6.434;2023-02-22T00:40:56;20.48;;;19.08;;
16900;SDS011;8567;52.540;6.434;2023-02-22T00:43:22;19.77;;;18.50;;
16900;SDS011;8567;52.540;6.434;2023-02-22T00:45:49;21.60;;;20.20;;
16900;SDS011;8567;52.540;6.434;2023-02-22T00:48:16;18.27;;;17.05;;
16900;SDS011;8567;52.540;6.434;2023-02-22T00:50:43;19.58;;;18.27;;
16900;SDS011;8567;52.540;6.434;2023-02-22T00:53:12;19.15;;;17.83;;
16900;SDS011;8567;52.540;6.434;2023-02-22T00:55:41;19.05;;;17.85;;
16900;SDS011;8567;52.540;6.434;2023-02-22T00:58:08;19.50;;;18.10;;
16900;SDS011;8567;52.540;6.434;2023-02-22T01:00:36;19.58;;;18.17;;
16900;SDS011;8567;52.540;6.434;2023-02-22T01:03:06;18.38;;;17.17;;
16900;SDS011;8567;52.540;6.434;2023-02-22T01:05:34;20.10;;;18.77;;
16900;SDS011;8567;52.540;6.434;2023-02-22T01:08:02;19.08;;;17.77;;
16900;SDS011;8567;52.540;6.434;2023-02-22T01:10:31;19.30;;;18.00;;
16900;SDS011;8567;52.540;6.434;2023-02-22T01:13:00;19.02;;;17.80;;
16900;SDS011;8567;52.540;6.434;2023-02-22T01:15:32;18.27;;;17.13;;
16900;SDS011;8567;52.540;6.434;2023-02-22T01:18:00;18.45;;;17.08;;
16900;SDS011;8567;52.540;6.434;2023-02-22T01:20:29;18.52;;;17.33;;
16900;SDS011;8567;52.540;6.434;2023-02-22T01:22:57;17.88;;;16.77;;
16900;SDS011;8567;52.540;6.434;2023-02-22T01:25:28;16.80;;;15.70;;
16900;SDS011;8567;52.540;6.434;2023-02-22T01:27:56;18.95;;;17.73;;
16900;SDS011;8567;52.540;6.434;2023-02-22T01:30:26;18.20;;;17.08;;
16900;SDS011;8567;52.540;6.434;2023-02-22T01:32:54;18.40;;;17.23;;
16900;SDS011;8567;52.540;6.434;2023-02-22T01:35:22;18.48;;;17.38;;
16900;SDS011;8567;52.540;6.434;2023-02-22T01:37:51;18.35;;;17.15;;
16900;SDS011;8567;52.540;6.434;2023-02-22T01:40:18;18.73;;;17.50;;
16900;SDS011;8567;52.540;6.434;2023-02-22T01:42:50;18.60;;;17.40;;
16900;SDS011;8567;52.540;6.434;2023-02-22T01:45:33;19.10;;;17.92;;
16900;SDS011;8567;52.540;6.434;2023-02-22T01:48:26;18.45;;;17.27;;
16900;SDS011;8567;52.540;6.434;2023-02-22T01:51:03;17.30;;;16.23;;
16900;SDS011;8567;52.540;6.434;2023-02-22T01:53:36;18.17;;;16.98;;
16900;SDS011;8567;52.540;6.434;2023-02-22T01:56:06;16.80;;;15.77;;
16900;SDS011;8567;52.540;6.434;2023-02-22T01:58:34;17.08;;;15.98;;
16900;SDS011;8567;52.540;6.434;2023-02-22T02:01:05;17.85;;;16.65;;
16900;SDS011;8567;52.540;6.434;2023-02-22T02:03:34;15.90;;;14.82;;
16900;SDS011;8567;52.540;6.434;2023-02-22T02:06:04;18.33;;;17.05;;
16900;SDS011;8567;52.540;6.434;2023-02-22T02:08:37;18.23;;;17.02;;
16900;SDS011;8567;52.540;6.434;2023-02-22T02:11:14;16.75;;;15.75;;
16900;SDS011;8567;52.540;6.434;2023-02-22T02:13:43;17.17;;;16.08;;
16900;SDS011;8567;52.540;6.434;2023-02-22T02:16:11;18.58;;;17.38;;
16900;SDS011;8567;52.540;6.434;2023-02-22T02:18:38;18.05;;;16.88;;
16900;SDS011;8567;52.540;6.434;2023-02-22T02:24:34;15.50;;;14.60;;
16900;SDS011;8567;52.540;6.434;2023-02-22T02:27:21;16.80;;;15.75;;
16900;SDS011;8567;52.540;6.434;2023-02-22T02:32:49;16.85;;;15.75;;
16900;SDS011;8567;52.540;6.434;2023-02-22T02:35:20;18.23;;;17.10;;
16900;SDS011;8567;52.540;6.434;2023-02-22T02:37:58;16.60;;;15.65;;
16900;SDS011;8567;52.540;6.434;2023-02-22T02:40:31;16.83;;;15.80;;
16900;SDS011;8567;52.540;6.434;2023-02-22T02:43:04;16.75;;;15.55;;
16900;SDS011;8567;52.540;6.434;2023-02-22T02:45:39;16.70;;;15.75;;
16900;SDS011;8567;52.540;6.434;2023-02-22T02:48:14;16.33;;;15.40;;
16900;SDS011;8567;52.540;6.434;2023-02-22T02:50:46;17.23;;;16.13;;
16900;SDS011;8567;52.540;6.434;2023-02-22T02:53:15;16.33;;;15.35;;
16900;SDS011;8567;52.540;6.434;2023-02-22T02:55:45;17.23;;;16.23;;
16900;SDS011;8567;52.540;6.434;2023-02-22T02:58:15;17.40;;;16.30;;
16900;SDS011;8567;52.540;6.434;2023-02-22T03:00:44;17.23;;;16.13;;
16900;SDS011;8567;52.540;6.434;2023-02-22T03:03:26;15.52;;;14.60;;
16900;SDS011;8567;52.540;6.434;2023-02-22T03:06:23;16.35;;;15.35;;
16900;SDS011;8567;52.540;6.434;2023-02-22T03:09:17;15.65;;;14.65;;
16900;SDS011;8567;52.540;6.434;2023-02-22T03:11:53;16.55;;;15.55;;
16900;SDS011;8567;52.540;6.434;2023-02-22T03:14:28;14.70;;;13.80;;
16900;SDS011;8567;52.540;6.434;2023-02-22T03:17:03;16.30;;;15.30;;
16900;SDS011;8567;52.540;6.434;2023-02-22T03:19:39;15.93;;;14.93;;
16900;SDS011;8567;52.540;6.434;2023-02-22T03:22:11;16.23;;;15.23;;
16900;SDS011;8567;52.540;6.434;2023-02-22T03:24:43;15.35;;;14.35;;
16900;SDS011;8567;52.540;6.434;2023-02-22T03:27:17;16.63;;;15.70;;
16900;SDS011;8567;52.540;6.434;2023-02-22T03:29:50;17.48;;;16.48;;
16900;SDS011;8567;52.540;6.434;2023-02-22T03:32:20;16.45;;;15.45;;
16900;SDS011;8567;52.540;6.434;2023-02-22T03:34:53;15.85;;;14.93;;
16900;SDS011;8567;52.540;6.434;2023-02-22T03:37:24;16.67;;;15.68;;
16900;SDS011;8567;52.540;6.434;2023-02-22T03:39:53;16.17;;;15.27;;
16900;SDS011;8567;52.540;6.434;2023-02-22T03:42:22;16.98;;;15.98;;
16900;SDS011;8567;52.540;6.434;2023-02-22T03:44:54;17.95;;;16.85;;
16900;SDS011;8567;52.540;6.434;2023-02-22T03:47:27;17.48;;;16.48;;
16900;SDS011;8567;52.540;6.434;2023-02-22T03:49:59;17.52;;;16.52;;
16900;SDS011;8567;52.540;6.434;2023-02-22T03:52:31;16.23;;;15.05;;
16900;SDS011;8567;52.540;6.434;2023-02-22T03:54:59;16.98;;;15.98;;
16900;SDS011;8567;52.540;6.434;2023-02-22T03:57:27;16.88;;;15.88;;
16900;SDS011;8567;52.540;6.434;2023-02-22T03:59:57;16.95;;;15.95;;
16900;SDS011;8567;52.540;6.434;2023-02-22T04:02:24;16.80;;;15.80;;
16900;SDS011;8567;52.540;6.434;2023-02-22T04:04:51;16.95;;;15.95;;
16900;SDS011;8567;52.540;6.434;2023-02-22T04:07:19;16.80;;;15.80;;
16900;SDS011;8567;52.540;6.434;2023-02-22T04:09:46;17.58;;;16.55;;
16900;SDS011;8567;52.540;6.434;2023-02-22T04:12:13;17.23;;;16.23;;
16900;SDS011;8567;52.540;6.434;2023-02-22T04:14:39;16.92;;;15.93;;
16900;SDS011;8567;52.540;6.434;2023-02-22T04:17:07;18.10;;;17.05;;
16900;SDS011;8567;52.540;6.434;2023-02-22T04:19:34;18.10;;;16.92;;
16900;SDS011;8567;52.540;6.434;2023-02-22T04:22:01;17.67;;;16.67;;
16900;SDS011;8567;52.540;6.434;2023-02-22T04:24:29;16.50;;;15.50;;
16900;SDS011;8567;52.540;6.434;2023-02-22T04:26:56;16.17;;;15.27;;
16900;SDS011;8567;52.540;6.434;2023-02-22T04:29:22;17.10;;;16.10;;
16900;SDS011;8567;52.540;6.434;2023-02-22T04:31:49;17.17;;;16.17;;
16900;SDS011;8567;52.540;6.434;2023-02-22T04:34:16;17.80;;;16.70;;
16900;SDS011;8567;52.540;6.434;2023-02-22T04:36:43;17.05;;;16.05;;
16900;SDS011;8567;52.540;6.434;2023-02-22T04:39:09;16.48;;;15.43;;
16900;SDS011;8567;52.540;6.434;2023-02-22T04:41:38;16.70;;;15.70;;
16900;SDS011;8567;52.540;6.434;2023-02-22T04:44:04;18.27;;;17.27;;
16900;SDS011;8567;52.540;6.434;2023-02-22T04:46:31;18.13;;;17.13;;
16900;SDS011;8567;52.540;6.434;2023-02-22T04:48:58;16.95;;;16.05;;
16900;SDS011;8567;52.540;6.434;2023-02-22T04:51:25;18.55;;;17.45;;
16900;SDS011;8567;52.540;6.434;2023-02-22T04:53:51;16.52;;;15.63;;
16900;SDS011;8567;52.540;6.434;2023-02-22T04:56:18;18.75;;;17.65;;
16900;SDS011;8567;52.540;6.434;2023-02-22T04:58:47;18.50;;;17.50;;
16900;SDS011;8567;52.540;6.434;2023-02-22T05:01:14;18.25;;;17.15;;
16900;SDS011;8567;52.540;6.434;2023-02-22T05:03:41;17.67;;;16.67;;
16900;SDS011;8567;52.540;6.434;2023-02-22T05:06:09;17.30;;;16.20;;
16900;SDS011;8567;52.540;6.434;2023-02-22T05:08:37;17.70;;;16.70;;
16900;SDS011;8567;52.540;6.434;2023-02-22T05:11:04;18.65;;;17.65;;
16900;SDS011;8567;52.540;6.434;2023-02-22T05:13:31;17.35;;;16.40;;
16900;SDS011;8567;52.540;6.434;2023-02-22T05:15:59;18.65;;;17.45;;
16900;SDS011;8567;52.540;6.434;2023-02-22T05:18:26;18.20;;;17.10;;
16900;SDS011;8567;52.540;6.434;2023-02-22T05:20:53;16.73;;;15.82;;
16900;SDS011;8567;52.540;6.434;2023-02-22T05:23:20;18.58;;;17.48;;
16900;SDS011;8567;52.540;6.434;2023-02-22T05:25:47;18.73;;;17.63;;
16900;SDS011;8567;52.540;6.434;2023-02-22T05:28:14;18.20;;;17.20;;
16900;SDS011;8567;52.540;6.434;2023-02-22T05:30:41;16.95;;;16.05;;
16900;SDS011;8567;52.540;6.434;2023-02-22T05:33:09;17.52;;;16.52;;
16900;SDS011;8567;52.540;6.434;2023-02-22T05:35:37;17.95;;;16.95;;
16900;SDS011;8567;52.540;6.434;2023-02-22T05:38:03;18.50;;;17.42;;
16900;SDS011;8567;52.540;6.434;2023-02-22T05:40:31;17.58;;;16.58;;
16900;SDS011;8567;52.540;6.434;2023-02-22T05:42:59;16.80;;;15.90;;
16900;SDS011;8567;52.540;6.434;2023-02-22T05:45:26;17.17;;;16.27;;
16900;SDS011;8567;52.540;6.434;2023-02-22T05:47:54;17.23;;;16.23;;
16900;SDS011;8567;52.540;6.434;2023-02-22T05:50:23;18.23;;;17.23;;
16900;SDS011;8567;52.540;6.434;2023-02-22T05:52:50;18.63;;;17.63;;
16900;SDS011;8567;52.540;6.434;2023-02-22T05:55:19;18.95;;;17.95;;
16900;SDS011;8567;52.540;6.434;2023-02-22T05:57:47;17.77;;;16.77;;
16900;SDS011;8567;52.540;6.434;2023-02-22T06:00:15;18.73;;;17.73;;
16900;SDS011;8567;52.540;6.434;2023-02-22T06:02:43;17.88;;;16.88;;
16900;SDS011;8567;52.540;6.434;2023-02-22T06:05:10;18.83;;;17.77;;
16900;SDS011;8567;52.540;6.434;2023-02-22T06:07:39;17.38;;;16.38;;
16900;SDS011;8567;52.540;6.434;2023-02-22T06:10:06;17.35;;;16.35;;
16900;SDS011;8567;52.540;6.434;2023-02-22T06:12:33;17.77;;;16.77;;
16900;SDS011;8567;52.540;6.434;2023-02-22T06:14:59;17.08;;;16.08;;
16900;SDS011;8567;52.540;6.434;2023-02-22T06:17:26;19.73;;;18.63;;
16900;SDS011;8567;52.540;6.434;2023-02-22T06:19:54;18.45;;;17.35;;
16900;SDS011;8567;52.540;6.434;2023-02-22T06:22:21;18.40;;;17.30;;
16900;SDS011;8567;52.540;6.434;2023-02-22T06:24:49;17.75;;;16.63;;
16900;SDS011;8567;52.540;6.434;2023-02-22T06:27:16;19.27;;;18.17;;
16900;SDS011;8567;52.540;6.434;2023-02-22T06:29:43;18.52;;;17.50;;
16900;SDS011;8567;52.540;6.434;2023-02-22T06:32:11;18.40;;;17.40;;
16900;SDS011;8567;52.540;6.434;2023-02-22T06:34:39;18.02;;;17.02;;
16900;SDS011;8567;52.540;6.434;2023-02-22T06:37:05;19.27;;;18.13;;
16900;SDS011;8567;52.540;6.434;2023-02-22T06:39:33;18.45;;;17.35;;
16900;SDS011;8567;52.540;6.434;2023-02-22T06:42:01;17.60;;;16.60;;
16900;SDS011;8567;52.540;6.434;2023-02-22T06:44:28;18.77;;;17.77;;
16900;SDS011;8567;52.540;6.434;2023-02-22T06:46:55;17.67;;;16.67;;
16900;SDS011;8567;52.540;6.434;2023-02-22T06:49:24;17.70;;;16.70;;
16900;SDS011;8567;52.540;6.434;2023-02-22T06:51:51;17.00;;;16.00;;
16900;SDS011;8567;52.540;6.434;2023-02-22T06:54:19;17.88;;;16.77;;
16900;SDS011;8567;52.540;6.434;2023-02-22T06:56:46;19.73;;;18.63;;
16900;SDS011;8567;52.540;6.434;2023-02-22T06:59:14;16.90;;;15.98;;
16900;SDS011;8567;52.540;6.434;2023-02-22T07:01:41;17.95;;;16.95;;
16900;SDS011;8567;52.540;6.434;2023-02-22T07:04:08;21.33;;;20.13;;
16900;SDS011;8567;52.540;6.434;2023-02-22T07:06:35;19.38;;;18.27;;
16900;SDS011;8567;52.540;6.434;2023-02-22T07:09:02;19.83;;;18.73;;
16900;SDS011;8567;52.540;6.434;2023-02-22T07:11:29;19.35;;;18.25;;
16900;SDS011;8567;52.540;6.434;2023-02-22T07:13:56;17.63;;;16.63;;
16900;SDS011;8567;52.540;6.434;2023-02-22T07:16:24;20.00;;;18.90;;
16900;SDS011;8567;52.540;6.434;2023-02-22T07:18:51;18.85;;;17.73;;
16900;SDS011;8567;52.540;6.434;2023-02-22T07:21:18;18.13;;;17.13;;
16900;SDS011;8567;52.540;6.434;2023-02-22T07:23:49;19.20;;;18.10;;
16900;SDS011;8567;52.540;6.434;2023-02-22T07:26:17;18.85;;;17.73;;
16900;SDS011;8567;52.540;6.434;2023-02-22T07:28:44;19.05;;;17.95;;
16900;SDS011;8567;52.540;6.434;2023-02-22T07:31:12;19.17;;;18.08;;
16900;SDS011;8567;52.540;6.434;2023-02-22T07:33:40;17.10;;;16.10;;
16900;SDS011;8567;52.540;6.434;2023-02-22T07:36:07;18.52;;;17.42;;
16900;SDS011;8567;52.540;6.434;2023-02-22T07:38:37;19.67;;;18.42;;
16900;SDS011;8567;52.540;6.434;2023-02-22T07:41:04;21.65;;;20.38;;
16900;SDS011;8567;52.540;6.434;2023-02-22T07:43:31;19.90;;;18.80;;
16900;SDS011;8567;52.540;6.434;2023-02-22T07:45:59;20.20;;;19.10;;
16900;SDS011;8567;52.540;6.434;2023-02-22T07:48:27;18.73;;;17.63;;
16900;SDS011;8567;52.540;6.434;2023-02-22T07:50:57;20.08;;;18.98;;
16900;SDS011;8567;52.540;6.434;2023-02-22T07:53:25;19.17;;;17.90;;
16900;SDS011;8567;52.540;6.434;2023-02-22T07:55:55;20.20;;;19.10;;
16900;SDS011;8567;52.540;6.434;2023-02-22T07:58:22;19.73;;;18.55;;
16900;SDS011;8567;52.540;6.434;2023-02-22T08:00:50;20.98;;;19.77;;
16900;SDS011;8567;52.540;6.434;2023-02-22T08:03:18;20.45;;;19.35;;
16900;SDS011;8567;52.540;6.434;2023-02-22T08:05:47;20.80;;;19.60;;
16900;SDS011;8567;52.540;6.434;2023-02-22T08:08:17;27.05;;;25.25;;
16900;SDS011;8567;52.540;6.434;2023-02-22T08:10:44;25.88;;;24.27;;
16900;SDS011;8567;52.540;6.434;2023-02-22T08:13:11;24.40;;;22.88;;
16900;SDS011;8567;52.540;6.434;2023-02-22T08:15:38;24.50;;;23.08;;
16900;SDS011;8567;52.540;6.434;2023-02-22T08:18:08;24.70;;;22.90;;
16900;SDS011;8567;52.540;6.434;2023-02-22T08:20:36;24.48;;;22.98;;
16900;SDS011;8567;52.540;6.434;2023-02-22T08:23:04;26.58;;;25.05;;
16900;SDS011;8567;52.540;6.434;2023-02-22T08:25:34;25.48;;;23.88;;
16900;SDS011;8567;52.540;6.434;2023-02-22T08:28:01;25.45;;;23.85;;
16900;SDS011;8567;52.540;6.434;2023-02-22T08:30:30;25.05;;;23.55;;
16900;SDS011;8567;52.540;6.434;2023-02-22T08:32:59;25.35;;;23.75;;
16900;SDS011;8567;52.540;6.434;2023-02-22T08:35:27;25.23;;;23.73;;
16900;SDS011;8567;52.540;6.434;2023-02-22T08:37:56;26.98;;;25.38;;
16900;SDS011;8567;52.540;6.434;2023-02-22T08:40:25;24.60;;;23.00;;
16900;SDS011;8567;52.540;6.434;2023-02-22T08:42:54;25.33;;;23.73;;
16900;SDS011;8567;52.540;6.434;2023-02-22T08:45:21;26.10;;;24.60;;
16900;SDS011;8567;52.540;6.434;2023-02-22T08:47:48;24.70;;;23.27;;
16900;SDS011;8567;52.540;6.434;2023-02-22T08:50:16;27.00;;;25.08;;
16900;SDS011;8567;52.540;6.434;2023-02-22T08:52:49;28.25;;;26.55;;
16900;SDS011;8567;52.540;6.434;2023-02-22T08:55:18;26.10;;;24.60;;
16900;SDS011;8567;52.540;6.434;2023-02-22T08:57:46;27.27;;;25.63;;
16900;SDS011;8567;52.540;6.434;2023-02-22T09:00:15;26.90;;;25.30;;
16900;SDS011;8567;52.540;6.434;2023-02-22T09:02:42;27.02;;;25.50;;
16900;SDS011;8567;52.540;6.434;2023-02-22T09:05:09;26.80;;;25.20;;
16900;SDS011;8567;52.540;6.434;2023-02-22T09:07:36;27.05;;;25.45;;
16900;SDS011;8567;52.540;6.434;2023-02-22T09:10:06;27.27;;;25.67;;
16900;SDS011;8567;52.540;6.434;2023-02-22T09:12:33;28.73;;;26.88;;
16900;SDS011;8567;52.540;6.434;2023-02-22T09:14:59;27.55;;;25.95;;
16900;SDS011;8567;52.540;6.434;2023-02-22T09:17:28;28.63;;;26.92;;
16900;SDS011;8567;52.540;6.434;2023-02-22T09:19:54;27.65;;;26.05;;
16900;SDS011;8567;52.540;6.434;2023-02-22T09:22:21;26.65;;;25.13;;
16900;SDS011;8567;52.540;6.434;2023-02-22T09:24:48;27.55;;;25.95;;
16900;SDS011;8567;52.540;6.434;2023-02-22T09:27:17;29.23;;;27.45;;
16900;SDS011;8567;52.540;6.434;2023-02-22T09:29:46;26.67;;;25.15;;
16900;SDS011;8567;52.540;6.434;2023-02-22T09:32:13;28.55;;;26.85;;
16900;SDS011;8567;52.540;6.434;2023-02-22T09:34:43;25.75;;;24.25;;
16900;SDS011;8567;52.540;6.434;2023-02-22T09:37:12;27.20;;;25.50;;
16900;SDS011;8567;52.540;6.434;2023-02-22T09:39:39;28.27;;;26.63;;
16900;SDS011;8567;52.540;6.434;2023-02-22T09:42:07;27.40;;;25.85;;
16900;SDS011;8567;52.540;6.434;2023-02-22T09:44:37;25.95;;;24.35;;
16900;SDS011;8567;52.540;6.434;2023-02-22T09:47:11;26.58;;;25.08;;
16900;SDS011;8567;52.540;6.434;2023-02-22T09:49:44;27.60;;;25.98;;
16900;SDS011;8567;52.540;6.434;2023-02-22T09:52:23;26.70;;;25.08;;
16900;SDS011;8567;52.540;6.434;2023-02-22T09:54:53;28.02;;;26.35;;
16900;SDS011;8567;52.540;6.434;2023-02-22T09:57:32;28.13;;;26.48;;
16900;SDS011;8567;52.540;6.434;2023-02-22T10:00:05;27.73;;;26.13;;
16900;SDS011;8567;52.540;6.434;2023-02-22T10:02:39;27.02;;;25.48;;
16900;SDS011;8567;52.540;6.434;2023-02-22T10:05:15;28.17;;;26.58;;
16900;SDS011;8567;52.540;6.434;2023-02-22T10:07:46;27.35;;;25.73;;
16900;SDS011;8567;52.540;6.434;2023-02-22T10:10:20;29.85;;;28.08;;
16900;SDS011;8567;52.540;6.434;2023-02-22T10:12:52;25.60;;;24.08;;
16900;SDS011;8567;52.540;6.434;2023-02-22T10:18:22;27.65;;;26.10;;
16900;SDS011;8567;52.540;6.434;2023-02-22T10:21:15;26.52;;;24.92;;
16900;SDS011;8567;52.540;6.434;2023-02-22T10:23:52;26.95;;;25.40;;
16900;SDS011;8567;52.540;6.434;2023-02-22T10:26:28;27.08;;;25.48;;
16900;SDS011;8567;52.540;6.434;2023-02-22T10:29:02;27.90;;;26.30;;
16900;SDS011;8567;52.540;6.434;2023-02-22T10:31:32;29.88;;;28.17;;
16900;SDS011;8567;52.540;6.434;2023-02-22T10:34:02;28.27;;;26.67;;
16900;SDS011;8567;52.540;6.434;2023-02-22T10:36:33;30.00;;;28.33;;
16900;SDS011;8567;52.540;6.434;2023-02-22T10:39:09;28.23;;;26.55;;
16900;SDS011;8567;52.540;6.434;2023-02-22T10:41:43;30.00;;;28.27;;
16900;SDS011;8567;52.540;6.434;2023-02-22T10:44:14;30.33;;;28.60;;
16900;SDS011;8567;52.540;6.434;2023-02-22T10:46:41;28.98;;;27.35;;
16900;SDS011;8567;52.540;6.434;2023-02-22T10:49:09;32.58;;;30.70;;
16900;SDS011;8567;52.540;6.434;2023-02-22T10:51:42;30.50;;;28.77;;
16900;SDS011;8567;52.540;6.434;2023-02-22T10:54:17;31.38;;;29.63;;
16900;SDS011;8567;52.540;6.434;2023-02-22T10:56:51;31.45;;;29.65;;
16900;SDS011;8567;52.540;6.434;2023-02-22T10:59:27;31.90;;;30.15;;
16900;SDS011;8567;52.540;6.434;2023-02-22T11:01:56;30.52;;;28.80;;
16900;SDS011;8567;52.540;6.434;2023-02-22T11:04:23;31.95;;;30.15;;
16900;SDS011;8567;52.540;6.434;2023-02-22T11:07:07;30.60;;;28.90;;
16900;SDS011;8567;52.540;6.434;2023-02-22T11:09:45;32.20;;;30.40;;
16900;SDS011;8567;52.540;6.434;2023-02-22T11:12:16;31.73;;;29.98;;
16900;SDS011;8567;52.540;6.434;2023-02-22T11:14:45;32.90;;;31.05;;
16900;SDS011;8567;52.540;6.434;2023-02-22T11:17:15;33.13;;;31.33;;
16900;SDS011;8567;52.540;6.434;2023-02-22T11:19:54;33.35;;;31.42;;
16900;SDS011;8567;52.540;6.434;2023-02-22T11:22:24;32.83;;;31.02;;
16900;SDS011;8567;52.540;6.434;2023-02-22T11:24:55;34.33;;;32.42;;
16900;SDS011;8567;52.540;6.434;2023-02-22T11:27:27;34.83;;;32.85;;
16900;SDS011;8567;52.540;6.434;2023-02-22T11:30:01;35.55;;;33.55;;
16900;SDS011;8567;52.540;6.434;2023-02-22T11:32:46;34.20;;;32.35;;
16900;SDS011;8567;52.540;6.434;2023-02-22T11:35:22;35.95;;;33.97;;
16900;SDS011;8567;52.540;6.434;2023-02-22T11:38:16;34.03;;;32.17;;
16900;SDS011;8567;52.540;6.434;2023-02-22T11:40:46;34.75;;;32.88;;
16900;SDS011;8567;52.540;6.434;2023-02-22T11:43:29;32.53;;;30.77;;
16900;SDS011;8567;52.540;6.434;2023-02-22T11:46:01;34.17;;;32.35;;
16900;SDS011;8567;52.540;6.434;2023-02-22T11:48:31;37.85;;;35.80;;
16900;SDS011;8567;52.540;6.434;2023-02-22T11:51:14;37.70;;;35.70;;
16900;SDS011;8567;52.540;6.434;2023-02-22T11:56:38;34.47;;;32.58;;
16900;SDS011;8567;52.540;6.434;2023-02-22T11:59:11;36.78;;;34.83;;
16900;SDS011;8567;52.540;6.434;2023-02-22T12:01:47;36.33;;;34.35;;
16900;SDS011;8567;52.540;6.434;2023-02-22T12:04:24;37.78;;;35.72;;
16900;SDS011;8567;52.540;6.434;2023-02-22T12:09:56;36.40;;;34.42;;
16900;SDS011;8567;52.540;6.434;2023-02-22T12:12:35;36.78;;;34.75;;
16900;SDS011;8567;52.540;6.434;2023-02-22T12:15:22;37.10;;;35.08;;
16900;SDS011;8567;52.540;6.434;2023-02-22T12:17:59;38.78;;;36.70;;
16900;SDS011;8567;52.540;6.434;2023-02-22T12:20:35;36.90;;;34.95;;
16900;SDS011;8567;52.540;6.434;2023-02-22T12:23:06;39.17;;;37.08;;
16900;SDS011;8567;52.540;6.434;2023-02-22T12:25:46;38.28;;;36.28;;
16900;SDS011;8567;52.540;6.434;2023-02-22T12:28:24;39.10;;;37.03;;
16900;SDS011;8567;52.540;6.434;2023-02-22T12:31:00;39.22;;;37.15;;
16900;SDS011;8567;52.540;6.434;2023-02-22T12:33:41;38.35;;;36.30;;
16900;SDS011;8567;52.540;6.434;2023-02-22T12:36:14;38.75;;;36.63;;
16900;SDS011;8567;52.540;6.434;2023-02-22T12:38:45;40.90;;;38.75;;
16900;SDS011;8567;52.540;6.434;2023-02-22T12:41:21;39.88;;;37.67;;
16900;SDS011;8567;52.540;6.434;2023-02-22T12:43:55;42.50;;;40.22;;
16900;SDS011;8567;52.540;6.434;2023-02-22T12:46:28;37.10;;;35.15;;
16900;SDS011;8567;52.540;6.434;2023-02-22T12:48:59;36.70;;;34.78;;
16900;SDS011;8567;52.540;6.434;2023-02-22T12:51:31;40.13;;;37.95;;
16900;SDS011;8567;52.540;6.434;2023-02-22T12:54:07;39.50;;;37.40;;
16900;SDS011;8567;52.540;6.434;2023-02-22T12:56:41;39.03;;;36.95;;
16900;SDS011;8567;52.540;6.434;2023-02-22T12:59:15;37.90;;;35.92;;
16900;SDS011;8567;52.540;6.434;2023-02-22T13:01:48;41.33;;;39.15;;
16900;SDS011;8567;52.540;6.434;2023-02-22T13:04:17;38.85;;;36.83;;
16900;SDS011;8567;52.540;6.434;2023-02-22T13:06:53;39.28;;;37.25;;
16900;SDS011;8567;52.540;6.434;2023-02-22T13:12:25;37.72;;;35.72;;
16900;SDS011;8567;52.540;6.434;2023-02-22T13:15:04;41.17;;;39.00;;
16900;SDS011;8567;52.540;6.434;2023-02-22T13:17:38;39.65;;;37.58;;
16900;SDS011;8567;52.540;6.434;2023-02-22T13:20:14;42.10;;;39.90;;
16900;SDS011;8567;52.540;6.434;2023-02-22T13:22:46;38.20;;;36.13;;
16900;SDS011;8567;52.540;6.434;2023-02-22T13:25:19;39.28;;;37.20;;
16900;SDS011;8567;52.540;6.434;2023-02-22T13:27:53;38.58;;;36.58;;
16900;SDS011;8567;52.540;6.434;2023-02-22T13:30:26;37.67;;;35.65;;
16900;SDS011;8567;52.540;6.434;2023-02-22T13:33:13;39.60;;;37.47;;
16900;SDS011;8567;52.540;6.434;2023-02-22T13:35:56;38.92;;;36.85;;
16900;SDS011;8567;52.540;6.434;2023-02-22T13:38:50;39.53;;;37.40;;
16900;SDS011;8567;52.540;6.434;2023-02-22T13:41:35;36.78;;;34.85;;
16900;SDS011;8567;52.540;6.434;2023-02-22T13:44:46;39.25;;;37.22;;
16900;SDS011;8567;52.540;6.434;2023-02-22T13:47:33;36.22;;;34.30;;
16900;SDS011;8567;52.540;6.434;2023-02-22T13:50:23;37.20;;;35.25;;
16900;SDS011;8567;52.540;6.434;2023-02-22T13:53:03;37.10;;;35.13;;
16900;SDS011;8567;52.540;6.434;2023-02-22T13:55:33;41.13;;;39.00;;
16900;SDS011;8567;52.540;6.434;2023-02-22T13:58:04;39.58;;;37.53;;
16900;SDS011;8567;52.540;6.434;2023-02-22T14:00:42;38.13;;;36.10;;
16900;SDS011;8567;52.540;6.434;2023-02-22T14:06:05;35.92;;;34.00;;
16900;SDS011;8567;52.540;6.434;2023-02-22T14:08:44;39.85;;;37.78;;
16900;SDS011;8567;52.540;6.434;2023-02-22T14:14:21;37.33;;;35.33;;
16900;SDS011;8567;52.540;6.434;2023-02-22T14:22:54;33.55;;;31.80;;
16900;SDS011;8567;52.540;6.434;2023-02-22T14:25:36;37.60;;;35.60;;
16900;SDS011;8567;52.540;6.434;2023-02-22T14:28:06;35.05;;;33.20;;
16900;SDS011;8567;52.540;6.434;2023-02-22T14:30:35;38.90;;;36.88;;
16900;SDS011;8567;52.540;6.434;2023-02-22T14:33:13;36.70;;;34.80;;
16900;SDS011;8567;52.540;6.434;2023-02-22T14:36:21;34.53;;;32.72;;
16900;SDS011;8567;52.540;6.434;2023-02-22T14:38:50;35.38;;;33.53;;
16900;SDS011;8567;52.540;6.434;2023-02-22T14:41:19;33.97;;;32.22;;
16900;SDS011;8567;52.540;6.434;2023-02-22T14:43:50;37.42;;;35.47;;
16900;SDS011;8567;52.540;6.434;2023-02-22T14:46:22;34.00;;;32.20;;
16900;SDS011;8567;52.540;6.434;2023-02-22T14:48:53;33.30;;;31.60;;
16900;SDS011;8567;52.540;6.434;2023-02-22T14:51:26;33.03;;;31.27;;
16900;SDS011;8567;52.540;6.434;2023-02-22T14:54:00;34.55;;;32.80;;
16900;SDS011;8567;52.540;6.434;2023-02-22T14:56:32;34.33;;;32.53;;
16900;SDS011;8567;52.540;6.434;2023-02-22T14:59:12;34.63;;;32.83;;
16900;SDS011;8567;52.540;6.434;2023-02-22T15:01:43;32.95;;;31.23;;
16900;SDS011;8567;52.540;6.434;2023-02-22T15:04:17;35.22;;;33.38;;
16900;SDS011;8567;52.540;6.434;2023-02-22T15:06:45;33.30;;;31.60;;
16900;SDS011;8567;52.540;6.434;2023-02-22T15:09:13;34.85;;;33.03;;
16900;SDS011;8567;52.540;6.434;2023-02-22T15:11:48;33.42;;;31.67;;
16900;SDS011;8567;52.540;6.434;2023-02-22T15:14:16;34.25;;;32.50;;
16900;SDS011;8567;52.540;6.434;2023-02-22T15:16:46;33.67;;;31.98;;
16900;SDS011;8567;52.540;6.434;2023-02-22T15:19:18;32.92;;;31.23;;
16900;SDS011;8567;52.540;6.434;2023-02-22T15:21:50;32.67;;;30.98;;
16900;SDS011;8567;52.540;6.434;2023-02-22T15:24:20;33.75;;;31.55;;
16900;SDS011;8567;52.540;6.434;2023-02-22T15:26:49;34.72;;;32.92;;